»·PEaware :: EJA220 KJAC-KBZN

EJA220 :: KJAC-KBZN

FLIGHT INFORMATION

Flight Status: Arrived
Operator:
Netjets Aviation
More flights by this operator :: More flights under this callsign
Pilot: Ethan S. (29221)
Aircraft: CANADAIR CL-600 CHALLENGER
(CL60)
More flights by this aircraft type
Origin: KJAC Jackson Hole
United States
Destination: KBZN Gallatin
United States
More flights between these airports :: More routes between these airports
Route: ALPIN4 KICNE LAMON LOSST GARNT
File this flight plan on PilotEdge
Remarks:
Altitude:
(Current/Filed)
24,000ft
Speed:
(Current/Filed)
465kts
Departed: 26-Nov-23 07:16 PM
Arrived: 26-Nov-23 07:52 PM
Distance/Time
Traveled:
131nm/0:36
Distance/Time
To Go:
Arrived

Flight Plot

Page will automatically refresh every two minutes.

Flight plan parsing failed; only flown route is shown


Map Options




Map Legend


Flown Route
Filed Route
Departure Airport
Arrival Airport
Navaid (VOR, NDB)
Fix

Horizontal Profiles

Position Reports

Time Latitude Longitude Heading Altitude Ground
Speed
26-Nov-23 18:51 43.598107 -110.739548 19 6419ft 0kts
26-Nov-23 18:52 43.598107 -110.739548 19 6419ft 0kts
26-Nov-23 18:53 43.598107 -110.739548 19 6419ft 0kts
26-Nov-23 18:54 43.598107 -110.739548 19 6419ft 0kts
26-Nov-23 18:55 43.598107 -110.739548 19 6419ft 0kts
26-Nov-23 18:56 43.598107 -110.739548 19 6419ft 0kts
26-Nov-23 18:57 43.598107 -110.739548 19 6419ft 0kts
26-Nov-23 18:58 43.598107 -110.739548 19 6419ft 0kts
26-Nov-23 18:59 43.598107 -110.739548 19 6419ft 0kts
26-Nov-23 19:00 43.598107 -110.739548 19 6419ft 0kts
26-Nov-23 19:01 43.598107 -110.739548 19 6419ft 0kts
26-Nov-23 19:02 43.598107 -110.739548 19 6419ft 0kts
26-Nov-23 19:02 43.598107 -110.739548 19 6419ft 0kts
26-Nov-23 19:04 43.598107 -110.739548 19 6419ft 0kts
26-Nov-23 19:05 43.598107 -110.739548 19 6419ft 0kts
26-Nov-23 19:06 43.598107 -110.739548 19 6419ft 0kts
26-Nov-23 19:07 43.598107 -110.739548 19 6419ft 0kts
26-Nov-23 19:07 43.598107 -110.739548 19 6419ft 0kts
26-Nov-23 19:09 43.598107 -110.739548 19 6419ft 0kts
26-Nov-23 19:09 43.598107 -110.739548 19 6419ft 0kts
26-Nov-23 19:10 43.598550 -110.739669 315 6420ft 6kts
26-Nov-23 19:12 43.603042 -110.738258 19 6426ft 13kts
26-Nov-23 19:13 43.608244 -110.735717 18 6435ft 24kts
26-Nov-23 19:13 43.612535 -110.733615 17 6444ft 7kts
26-Nov-23 19:14 43.615163 -110.732919 293 6450ft 11kts
26-Nov-23 19:15 43.597025 -110.742955 202 7119ft 180kts
26-Nov-23 19:17 43.524027 -110.791753 208 11663ft 299kts
26-Nov-23 19:17 43.457686 -110.834448 210 15478ft 341kts
26-Nov-23 19:18 43.365587 -110.901239 231 19060ft 383kts
26-Nov-23 19:19 43.359609 -111.026605 315 22737ft 345kts
26-Nov-23 19:20 43.452587 -111.072122 347 23703ft 373kts
26-Nov-23 19:21 43.552085 -111.104997 346 23700ft 365kts
26-Nov-23 19:22 43.650917 -111.139491 346 23763ft 368kts
26-Nov-23 19:23 43.755058 -111.176224 345 23745ft 391kts
26-Nov-23 19:24 43.860286 -111.213623 346 23702ft 390kts
26-Nov-23 19:25 43.966703 -111.241968 359 23752ft 390kts
26-Nov-23 19:26 44.074876 -111.219660 7 23700ft 392kts
26-Nov-23 19:27 44.182461 -111.193227 7 23695ft 391kts
26-Nov-23 19:28 44.289981 -111.166355 7 23739ft 390kts
26-Nov-23 19:29 44.396995 -111.139395 7 23676ft 389kts
26-Nov-23 19:30 44.503735 -111.112373 7 23731ft 390kts
26-Nov-23 19:31 44.610406 -111.085353 7 23689ft 387kts
26-Nov-23 19:32 44.716237 -111.058327 7 23700ft 386kts
26-Nov-23 19:33 44.819711 -111.031815 7 22841ft 353kts
26-Nov-23 19:34 44.910468 -111.008610 6 21160ft 321kts
26-Nov-23 19:35 44.998548 -110.985990 6 19415ft 323kts
26-Nov-23 19:36 45.086058 -110.963378 6 17413ft 316kts
26-Nov-23 19:37 45.168069 -110.980298 327 15511ft 308kts
26-Nov-23 19:38 45.239369 -111.045991 327 13588ft 306kts
26-Nov-23 19:39 45.310572 -111.110911 327 12091ft 296kts
26-Nov-23 19:40 45.380079 -111.174327 326 12044ft 294kts
26-Nov-23 19:41 45.458671 -111.195834 3 12044ft 301kts
26-Nov-23 19:42 45.540576 -111.185108 1 11094ft 286kts
26-Nov-23 19:43 45.609171 -111.228862 321 10288ft 283kts
26-Nov-23 19:44 45.670838 -111.297319 321 8350ft 279kts
26-Nov-23 19:45 45.730447 -111.364001 328 7916ft 270kts
26-Nov-23 19:46 45.792149 -111.323418 45 7908ft 246kts
26-Nov-23 19:47 45.828287 -111.267960 45 6377ft 159kts
26-Nov-23 19:48 45.827810 -111.221558 137 5473ft 141kts
26-Nov-23 19:49 45.800598 -111.183943 135 4794ft 135kts
26-Nov-23 19:50 45.777764 -111.152120 135 4458ft 49kts
26-Nov-23 19:51 45.774372 -111.150393 225 4466ft 0kts
26-Nov-23 19:52 45.773252 -111.152010 174 4469ft 0kts
26-Nov-23 19:53 45.773161 -111.151911 135 4469ft 0kts
26-Nov-23 19:54 45.773161 -111.151911 135 4469ft 0kts
26-Nov-23 19:55 45.773161 -111.151911 135 4469ft 0kts

Navigation Log

Ident Type
Flight plan parsing failed, navigation log unavailable